Time;durP1;ratioP1;P1;durP2;ratioP2;P2;SDS_P1;SDS_P2;PMS_P1;PMS_P2;Temp;Humidity;BMP_temperature;BMP_pressure;BME280_temperature;BME280_humidity;BME280_pressure;Samples;Min_cycle;Max_cycle;Signal;HPM_P1;HPM_P2
2023/01/21 00:06:58;;;;;;;9.95;5.50;;;-4.70;99.90;;;;;;21002386;28;20028;-77
2023/01/21 00:16:59;;;;;;;11.48;5.20;;;-4.70;99.90;;;;;;21001588;28;20035;-76
2023/01/21 00:27:00;;;;;;;12.75;5.90;;;-4.70;99.90;;;;;;20996458;28;20093;-75
2023/01/21 00:37:00;;;;;;;18.60;6.35;;;-5.00;99.90;;;;;;21038263;28;20028;-77
2023/01/21 00:47:01;;;;;;;11.68;5.43;;;-5.00;99.90;;;;;;21055798;28;20028;-77
2023/01/21 00:57:02;;;;;;;8.35;4.53;;;-5.00;99.90;;;;;;21065091;28;20035;-76
2023/01/21 01:07:03;;;;;;;12.75;5.70;;;-5.10;99.90;;;;;;20997468;28;20127;-76
2023/01/21 01:17:04;;;;;;;15.65;5.90;;;-5.10;99.90;;;;;;20996082;28;20029;-76
2023/01/21 01:27:05;;;;;;;13.57;5.70;;;-5.10;99.90;;;;;;21020025;28;20080;-76
2023/01/21 01:37:05;;;;;;;13.23;6.35;;;-5.20;99.90;;;;;;21078817;28;20035;-76
2023/01/21 01:47:06;;;;;;;14.98;5.95;;;-5.20;99.90;;;;;;21080428;28;20016;-75
2023/01/21 01:57:10;;;;;;;9.32;5.05;;;-5.20;99.90;;;;;;21048608;28;20442;-77
2023/01/21 02:07:11;;;;;;;14.10;6.32;;;-5.10;99.90;;;;;;21057323;28;20028;-77
2023/01/21 02:17:23;;;;;;;16.08;6.50;;;-5.10;99.90;;;;;;21075377;28;20020;-78
2023/01/21 02:27:49;;;;;;;14.40;6.35;;;-5.10;99.90;;;;;;21057382;28;20109;-78
2023/01/21 02:38:23;;;;;;;10.05;5.35;;;-5.10;99.90;;;;;;21076943;28;20024;-77
2023/01/21 02:48:54;;;;;;;12.40;5.68;;;-5.10;99.90;;;;;;21075535;28;20364;-76
2023/01/21 02:59:00;;;;;;;13.65;5.75;;;-5.50;99.90;;;;;;21017254;28;20032;-77
2023/01/21 03:09:26;;;;;;;12.93;6.60;;;-5.50;99.90;;;;;;20990325;28;20399;-77
2023/01/21 03:19:51;;;;;;;22.95;11.18;;;-5.60;99.90;;;;;;20993886;28;20031;-76
2023/01/21 03:30:01;;;;;;;23.40;10.65;;;-5.50;99.90;;;;;;21035539;28;20031;-76
2023/01/21 03:40:27;;;;;;;26.10;10.63;;;-5.60;99.90;;;;;;20983491;28;20531;-77
2023/01/21 03:50:38;;;;;;;16.80;7.47;;;-5.50;99.90;;;;;;21068945;28;20040;-76
2023/01/21 04:00:39;;;;;;;11.93;5.40;;;-5.60;99.90;;;;;;21085881;28;20028;-75
2023/01/21 04:10:40;;;;;;;12.98;5.78;;;-5.70;99.90;;;;;;21082513;28;20529;-77
2023/01/21 04:20:40;;;;;;;12.75;5.88;;;-5.70;99.90;;;;;;21000024;28;20050;-77
2023/01/21 04:30:41;;;;;;;14.93;6.43;;;-5.70;99.90;;;;;;20998616;28;20021;-76
2023/01/21 04:40:43;;;;;;;11.50;5.60;;;-5.80;99.90;;;;;;20998033;28;20071;-76
2023/01/21 04:50:45;;;;;;;12.45;5.40;;;-5.80;99.90;;;;;;20997873;28;20024;-76
2023/01/21 05:00:46;;;;;;;13.50;6.28;;;-5.80;99.90;;;;;;20941413;28;20503;-76
2023/01/21 05:10:47;;;;;;;10.55;6.18;;;-5.80;99.90;;;;;;20984917;28;20029;-76
2023/01/21 05:20:47;;;;;;;13.07;6.35;;;-5.90;99.90;;;;;;21036706;28;20524;-76
2023/01/21 05:30:48;;;;;;;15.63;6.13;;;-5.80;99.90;;;;;;21078445;28;20115;-77
2023/01/21 05:40:49;;;;;;;12.55;5.90;;;-6.00;99.90;;;;;;20996333;28;20043;-77
2023/01/21 05:50:50;;;;;;;11.75;4.68;;;-6.10;99.90;;;;;;21032763;28;20027;-77
2023/01/21 06:00:51;;;;;;;11.88;5.88;;;-6.20;99.90;;;;;;21043576;28;20102;-77
2023/01/21 06:10:55;;;;;;;16.95;7.80;;;-6.20;99.90;;;;;;21002122;28;20034;-77
2023/01/21 06:20:59;;;;;;;17.23;8.27;;;-6.20;99.90;;;;;;20984169;28;20052;-77
2023/01/21 06:30:59;;;;;;;23.38;7.90;;;-6.20;99.90;;;;;;21039484;28;20044;-77
2023/01/21 06:41:01;;;;;;;13.00;6.38;;;-6.30;99.90;;;;;;21048503;28;20089;-78
2023/01/21 06:51:02;;;;;;;11.63;4.93;;;-6.30;99.90;;;;;;21009554;28;20032;-76
2023/01/21 07:01:03;;;;;;;12.77;5.22;;;-6.30;99.90;;;;;;20979177;28;20036;-76
2023/01/21 07:11:04;;;;;;;7.22;3.67;;;-6.30;99.90;;;;;;21005624;28;20033;-76
2023/01/21 07:21:05;;;;;;;10.50;4.38;;;-6.20;99.90;;;;;;20992629;28;20043;-76
2023/01/21 07:31:06;;;;;;;39.47;11.20;;;-6.20;99.90;;;;;;21010767;28;20162;-77
2023/01/21 07:41:06;;;;;;;34.13;13.90;;;-6.20;99.90;;;;;;21072553;28;20076;-77
2023/01/21 07:51:07;;;;;;;10.50;4.90;;;-5.70;99.90;;;;;;21044588;28;20100;-77
2023/01/21 08:01:08;;;;;;;14.57;6.97;;;-4.20;99.90;;;;;;20996616;28;20106;-77
2023/01/21 08:11:09;;;;;;;42.95;23.92;;;-4.30;99.90;;;;;;20988576;28;20031;-78
2023/01/21 08:21:10;;;;;;;22.52;9.57;;;-4.20;99.90;;;;;;20993737;28;20048;-77
2023/01/21 08:31:12;;;;;;;14.65;7.20;;;-3.40;99.90;;;;;;20991452;28;20409;-78
2023/01/21 08:41:13;;;;;;;13.98;7.75;;;-3.40;99.90;;;;;;20995444;28;20070;-78
2023/01/21 08:51:13;;;;;;;20.52;9.23;;;-2.80;99.90;;;;;;20996256;28;20048;-77
2023/01/21 09:01:14;;;;;;;15.75;8.18;;;-3.20;99.90;;;;;;20985863;28;20041;-77
2023/01/21 09:11:16;;;;;;;17.83;8.52;;;-3.90;99.90;;;;;;20988130;28;20029;-79
2023/01/21 09:21:16;;;;;;;17.80;8.63;;;-3.70;99.90;;;;;;21010184;28;20123;-78
2023/01/21 09:31:20;;;;;;;20.48;9.40;;;-2.80;99.90;;;;;;20988231;28;20036;-78
2023/01/21 09:41:37;;;;;;;19.33;7.95;;;-0.70;99.90;;;;;;21028533;28;20032;-78
2023/01/21 09:52:07;;;;;;;18.20;8.05;;;0.40;99.90;;;;;;21012364;28;20134;-78
2023/01/21 10:02:28;;;;;;;16.40;7.50;;;1.50;99.90;;;;;;20993835;28;20037;-78
2023/01/21 10:12:48;;;;;;;22.00;8.27;;;2.30;99.90;;;;;;20954961;28;20204;-78
2023/01/21 10:23:12;;;;;;;12.38;6.57;;;2.90;99.90;;;;;;20985764;28;20028;-78
2023/01/21 10:33:23;;;;;;;17.17;8.15;;;2.80;99.90;;;;;;21016380;28;20443;-77
2023/01/21 10:43:32;;;;;;;23.03;10.13;;;2.40;99.90;;;;;;21036819;28;20081;-77
2023/01/21 10:54:02;;;;;;;19.30;8.63;;;1.60;99.90;;;;;;21028122;28;20784;-77
2023/01/21 11:04:19;;;;;;;16.30;7.75;;;2.60;99.90;;;;;;21080921;28;20114;-77
2023/01/21 11:14:19;;;;;;;41.33;15.68;;;3.00;99.90;;;;;;21085676;28;20127;-77
2023/01/21 11:24:22;;;;;;;15.68;8.38;;;3.90;99.90;;;;;;21048214;28;20463;-75
2023/01/21 11:34:23;;;;;;;13.55;7.45;;;4.40;99.90;;;;;;21007918;28;20025;-76
2023/01/21 11:44:24;;;;;;;14.23;7.88;;;4.80;99.90;;;;;;21042187;28;20048;-78
2023/01/21 11:54:25;;;;;;;13.77;7.97;;;3.70;99.90;;;;;;21086208;28;20039;-78
2023/01/21 12:04:26;;;;;;;20.23;9.68;;;3.40;99.90;;;;;;21065614;28;20029;-77
2023/01/21 12:14:49;;;;;;;16.13;8.50;;;3.60;99.90;;;;;;21002048;28;20028;-77
2023/01/21 12:25:06;;;;;;;85.07;30.23;;;3.30;99.90;;;;;;20999930;28;20035;-77
2023/01/21 12:35:31;;;;;;;24.95;10.45;;;3.40;99.90;;;;;;20999462;28;20036;-76
2023/01/21 12:45:50;;;;;;;17.23;8.38;;;4.50;99.90;;;;;;20998258;28;20425;-77
2023/01/21 12:56:12;;;;;;;15.13;6.05;;;4.00;99.90;;;;;;20979754;28;20028;-77
2023/01/21 13:06:16;;;;;;;17.65;5.95;;;2.60;99.90;;;;;;20978368;28;20028;-77
2023/01/21 13:16:17;;;;;;;15.43;6.68;;;2.10;99.90;;;;;;20992582;28;20111;-78
2023/01/21 13:26:27;;;;;;;22.20;7.43;;;1.80;99.90;;;;;;20997251;28;20045;-78
2023/01/21 13:37:05;;;;;;;11.93;5.33;;;0.70;99.90;;;;;;21003706;28;20060;-77
2023/01/21 13:47:25;;;;;;;20.55;7.80;;;-0.10;99.90;;;;;;21046667;28;20028;-76
2023/01/21 13:57:50;;;;;;;16.33;6.27;;;-0.30;99.90;;;;;;21079436;28;20035;-77
2023/01/21 14:08:04;;;;;;;14.05;6.65;;;-0.20;99.90;;;;;;21080826;28;20036;-77
2023/01/21 14:18:19;;;;;;;19.25;7.72;;;-0.30;99.90;;;;;;21029094;28;20040;-77
2023/01/21 14:28:41;;;;;;;19.45;6.85;;;-0.30;99.90;;;;;;20998745;28;20028;-77
2023/01/21 14:39:04;;;;;;;32.30;12.80;;;-0.20;99.90;;;;;;21000212;28;20075;-77
2023/01/21 14:49:07;;;;;;;16.60;7.40;;;-0.10;99.90;;;;;;21028607;28;20441;-77
2023/01/21 14:59:40;;;;;;;18.05;7.55;;;-0.20;99.90;;;;;;21000237;28;20028;-79
2023/01/21 15:09:46;;;;;;;18.20;7.70;;;-0.30;99.90;;;;;;21031260;28;20510;-78
2023/01/21 15:19:56;;;;;;;22.02;7.88;;;-0.40;99.90;;;;;;21037954;28;20052;-78
2023/01/21 15:29:57;;;;;;;18.63;9.18;;;-0.50;99.90;;;;;;21085419;28;20414;-79
2023/01/21 15:40:03;;;;;;;15.95;7.82;;;-0.60;99.90;;;;;;21035982;28;20033;-79
2023/01/21 15:50:25;;;;;;;22.13;10.80;;;-0.60;99.90;;;;;;21014376;28;20039;-78
2023/01/21 16:00:42;;;;;;;20.60;9.32;;;-0.50;99.90;;;;;;21078995;28;20031;-77
2023/01/21 16:10:48;;;;;;;20.35;8.68;;;-0.50;99.90;;;;;;21092262;28;20137;-78
2023/01/21 16:20:52;;;;;;;18.55;8.45;;;-0.50;99.90;;;;;;21014151;28;20047;-77
2023/01/21 16:30:56;;;;;;;21.58;7.63;;;-0.40;99.90;;;;;;21007200;28;20067;-77
2023/01/21 16:41:05;;;;;;;27.23;11.48;;;-0.30;99.90;;;;;;20999617;28;20407;-77
2023/01/21 16:51:33;;;;;;;13.17;6.77;;;-0.30;99.90;;;;;;20998290;28;20391;-77
2023/01/21 17:01:34;;;;;;;16.08;7.57;;;-0.20;99.90;;;;;;20997655;28;20082;-77
2023/01/21 17:11:43;;;;;;;16.63;7.40;;;-0.20;99.90;;;;;;20996767;28;20025;-76
2023/01/21 17:21:47;;;;;;;13.27;6.82;;;-0.30;99.90;;;;;;20995552;28;20032;-77
2023/01/21 17:32:05;;;;;;;11.00;5.68;;;-0.20;99.90;;;;;;20978371;28;20123;-77
2023/01/21 17:42:21;;;;;;;12.25;5.63;;;-0.30;99.90;;;;;;20996406;28;20074;-77
2023/01/21 17:52:22;;;;;;;11.63;5.95;;;-0.30;99.90;;;;;;20912076;28;20037;-77
2023/01/21 18:02:23;;;;;;;12.27;6.80;;;-0.30;99.90;;;;;;20919323;28;20029;-78
2023/01/21 18:12:24;;;;;;;11.10;5.68;;;-0.40;99.90;;;;;;20929556;28;20496;-77
2023/01/21 18:22:27;;;;;;;13.07;6.50;;;-0.40;99.90;;;;;;21013241;28;20040;-78
2023/01/21 18:32:28;;;;;;;11.35;6.32;;;-0.40;99.90;;;;;;21008095;28;20024;-77
2023/01/21 18:42:29;;;;;;;17.40;7.93;;;-0.30;99.90;;;;;;20995866;28;20036;-77
2023/01/21 18:52:30;;;;;;;11.35;6.43;;;-0.40;99.90;;;;;;21043230;28;20035;-77
2023/01/21 19:02:31;;;;;;;17.88;8.00;;;-0.50;99.90;;;;;;21011128;28;20028;-77
2023/01/21 19:12:31;;;;;;;15.88;8.18;;;-0.60;99.90;;;;;;21001383;28;20070;-77
2023/01/21 19:22:32;;;;;;;15.43;7.68;;;-0.60;99.90;;;;;;20969738;28;20119;-77
2023/01/21 19:32:33;;;;;;;15.38;6.72;;;-0.70;99.90;;;;;;21003480;28;20036;-76
2023/01/21 19:42:34;;;;;;;14.95;7.22;;;-0.70;99.90;;;;;;20988040;28;20056;-77
2023/01/21 19:52:34;;;;;;;13.38;7.03;;;-0.60;99.90;;;;;;20982335;28;20458;-76
2023/01/21 20:02:35;;;;;;;14.95;7.15;;;-0.50;99.90;;;;;;21003830;28;20037;-77
2023/01/21 20:12:36;;;;;;;11.50;5.53;;;-0.50;99.90;;;;;;20993722;28;20021;-77
2023/01/21 20:22:37;;;;;;;12.35;5.93;;;-0.50;99.90;;;;;;21002466;28;20032;-78
2023/01/21 20:32:37;;;;;;;13.23;6.20;;;-0.50;99.90;;;;;;21011494;28;20027;-77
2023/01/21 20:42:38;;;;;;;10.57;5.70;;;-0.50;99.90;;;;;;20981080;28;20039;-77
2023/01/21 20:52:39;;;;;;;13.52;5.82;;;-0.40;99.90;;;;;;20993292;28;20392;-77
2023/01/21 21:02:40;;;;;;;14.73;5.70;;;-0.50;99.90;;;;;;21003356;28;20060;-77
2023/01/21 21:12:40;;;;;;;11.95;5.70;;;-0.50;99.90;;;;;;20998384;28;20032;-77
2023/01/21 21:22:41;;;;;;;12.98;5.32;;;-0.50;99.90;;;;;;20997235;28;20027;-77
2023/01/21 21:32:43;;;;;;;13.35;4.88;;;-0.70;99.90;;;;;;20999789;28;20115;-77
2023/01/21 21:53:03;;;;;;;17.38;6.35;;;-0.70;99.90;;;;;;20999915;28;20032;-77
2023/01/21 22:03:05;;;;;;;12.30;5.63;;;-0.90;99.90;;;;;;21007890;28;20526;-77
2023/01/21 22:13:06;;;;;;;12.27;5.25;;;-0.90;99.90;;;;;;20934836;28;20029;-77
2023/01/21 22:23:07;;;;;;;14.85;6.13;;;-0.80;99.90;;;;;;21006376;28;20124;-76
2023/01/21 22:33:08;;;;;;;14.23;6.38;;;-0.70;99.90;;;;;;20983934;28;20049;-77
2023/01/21 22:43:10;;;;;;;13.68;6.68;;;-0.60;99.90;;;;;;21000491;28;20245;-77
2023/01/21 22:53:11;;;;;;;13.57;5.95;;;-0.50;99.90;;;;;;20992278;28;20048;-77
2023/01/21 23:03:12;;;;;;;14.68;6.53;;;-0.70;99.90;;;;;;20990727;28;20363;-77
2023/01/21 23:13:15;;;;;;;21.17;8.48;;;-0.80;99.90;;;;;;20989256;28;20028;-77
2023/01/21 23:23:16;;;;;;;26.40;10.07;;;-0.90;99.90;;;;;;20961022;28;20040;-77
2023/01/21 23:33:17;;;;;;;20.05;9.20;;;-1.00;99.90;;;;;;20969415;28;20483;-78
2023/01/21 23:43:17;;;;;;;15.50;7.18;;;-0.80;99.90;;;;;;21002274;28;20491;-77
2023/01/21 23:53:18;;;;;;;20.17;8.77;;;-0.70;99.90;;;;;;21004806;28;20040;-77
